Time;durP1;ratioP1;P1;durP2;ratioP2;P2;SDS_P1;SDS_P2;PMS_P1;PMS_P2;Temp;Humidity;BMP_temperature;BMP_pressure;BME280_temperature;BME280_humidity;BME280_pressure;Samples;Min_cycle;Max_cycle;Signal;HPM_P1;HPM_P2
2023/01/13 00:01:29;;;;;;;3.67;1.00;;;10.10;75.60;;;12.98;48.19;97247.78;5033308;28;20056;-46
2023/01/13 00:03:57;;;;;;;3.23;0.80;;;10.10;75.60;;;12.98;48.08;97253.94;5033184;28;20053;-46
2023/01/13 00:06:26;;;;;;;1.90;0.70;;;10.10;75.60;;;13.06;48.05;97247.66;5033125;28;20040;-46
2023/01/13 00:08:53;;;;;;;1.70;0.70;;;10.10;75.70;;;13.06;47.85;97242.31;5031776;28;20049;-46
2023/01/13 00:11:22;;;;;;;2.70;0.90;;;10.10;75.80;;;13.07;47.90;97235.97;5033070;28;20069;-46
2023/01/13 00:13:49;;;;;;;1.57;0.77;;;10.10;75.70;;;13.12;47.92;97233.53;5041757;28;20041;-48
2023/01/13 00:16:19;;;;;;;2.30;0.97;;;10.10;75.60;;;13.13;47.98;97240.56;5046341;28;20041;-46
2023/01/13 00:18:48;;;;;;;0.57;0.57;;;10.10;75.80;;;13.14;47.92;97236.03;5031506;28;20453;-44
2023/01/13 00:21:22;;;;;;;2.53;0.97;;;10.10;75.80;;;13.14;47.91;97236.88;5032709;28;20299;-46
2023/01/13 00:23:53;;;;;;;1.10;0.73;;;10.10;75.70;;;13.13;47.95;97235.22;5031960;28;20037;-44
2023/01/13 00:26:26;;;;;;;2.57;0.90;;;10.10;75.90;;;13.12;47.91;97233.53;5031804;28;20041;-48
2023/01/13 00:28:57;;;;;;;3.43;1.00;;;10.10;76.80;;;13.14;47.95;97242.22;5032741;28;20036;-46
2023/01/13 00:31:27;;;;;;;2.60;0.77;;;10.10;76.00;;;13.12;48.00;97235.41;5031522;28;20041;-45
2023/01/13 00:33:56;;;;;;;1.80;0.60;;;10.00;76.00;;;13.16;47.76;97231.34;5031611;28;20056;-46
2023/01/13 00:36:24;;;;;;;1.53;1.53;;;10.10;76.00;;;13.17;47.67;97236.50;5032704;28;20451;-44
2023/01/13 00:38:52;;;;;;;4.17;0.70;;;10.10;76.00;;;13.16;47.79;97228.66;5032251;28;20049;-43
2023/01/13 00:41:22;;;;;;;1.17;0.70;;;10.10;75.90;;;13.18;48.02;97222.13;5032517;28;20053;-46
2023/01/13 00:43:50;;;;;;;1.43;0.73;;;10.10;75.90;;;13.22;47.87;97224.41;5032613;28;20045;-45
2023/01/13 00:46:20;;;;;;;2.60;1.10;;;10.10;75.70;;;13.24;47.72;97215.22;5031697;28;20479;-47
2023/01/13 00:48:50;;;;;;;1.13;0.50;;;10.20;75.60;;;13.28;47.71;97213.81;5031008;28;20485;-43
2023/01/13 00:51:20;;;;;;;1.60;0.73;;;10.20;75.50;;;13.32;47.82;97214.28;5032523;28;20037;-45
2023/01/13 00:53:50;;;;;;;1.30;0.77;;;10.20;75.20;;;13.30;47.91;97210.94;5032749;28;20037;-47
2023/01/13 00:56:21;;;;;;;1.33;0.87;;;10.20;75.30;;;13.33;47.85;97213.25;5031322;28;20046;-48
2023/01/13 00:59:10;;;;;;;1.13;0.70;;;10.20;75.30;;;13.37;47.69;97212.69;5031166;28;20041;-44
2023/01/13 01:01:38;;;;;;;1.40;0.70;;;10.20;76.40;;;13.41;47.60;97206.97;5032341;28;20492;-45
2023/01/13 01:04:07;;;;;;;1.47;0.60;;;10.20;75.50;;;13.41;47.35;97197.09;5032207;28;20048;-47
2023/01/13 01:06:35;;;;;;;1.67;0.70;;;10.30;75.50;;;13.40;47.51;97198.13;5032523;28;20050;-46
2023/01/13 01:09:03;;;;;;;2.70;0.70;;;10.30;75.30;;;13.39;47.63;97196.47;5031953;28;20060;-45
2023/01/13 01:11:33;;;;;;;3.20;0.80;;;10.30;75.30;;;13.37;47.65;97196.63;5030771;28;20045;-47
2023/01/13 01:14:03;;;;;;;0.87;0.60;;;10.30;75.30;;;13.38;47.66;97198.31;5032189;28;20399;-45
2023/01/13 01:16:32;;;;;;;1.73;0.50;;;10.30;75.40;;;13.38;47.54;97189.47;5032000;28;20068;-47
2023/01/13 01:19:01;;;;;;;1.93;1.20;;;10.30;75.60;;;13.37;47.47;97190.47;5030707;28;20064;-43
2023/01/13 01:21:28;;;;;;;2.03;0.77;;;10.30;75.50;;;13.31;47.66;97188.56;5032079;28;20042;-43
2023/01/13 01:24:00;;;;;;;2.10;0.63;;;10.30;75.10;;;13.34;47.80;97193.53;5031853;28;20489;-45
2023/01/13 01:26:29;;;;;;;2.67;0.80;;;10.30;75.40;;;13.34;47.37;97188.19;5032121;28;20300;-44
2023/01/13 01:28:58;;;;;;;0.83;0.50;;;10.30;75.30;;;13.39;47.75;97197.28;5031723;28;20037;-48
2023/01/13 01:31:30;;;;;;;0.80;0.80;;;10.30;75.30;;;13.42;47.57;97195.28;5031710;28;20496;-46
2023/01/13 01:33:59;;;;;;;1.40;0.83;;;10.30;75.30;;;13.44;47.64;97190.56;5030707;28;20045;-46
2023/01/13 01:36:30;;;;;;;3.30;0.73;;;10.30;75.50;;;13.42;47.72;97188.06;5030355;28;20057;-46
2023/01/13 01:38:59;;;;;;;2.63;1.20;;;10.30;75.80;;;13.43;47.66;97196.91;5031175;28;20045;-50
2023/01/13 01:41:31;;;;;;;0.47;0.47;;;10.30;75.70;;;13.39;47.75;97196.47;5031178;28;20052;-48
2023/01/13 01:44:36;;;;;;;1.63;0.80;;;10.30;75.60;;;13.36;47.85;97192.31;5031393;28;20412;-49
2023/01/13 01:47:04;;;;;;;1.03;0.80;;;10.30;75.80;;;13.37;47.81;97193.16;5031115;28;20048;-47
2023/01/13 01:49:35;;;;;;;2.10;1.40;;;10.30;75.80;;;13.38;47.91;97192.16;5031252;28;20052;-47
2023/01/13 01:52:29;;;;;;;1.17;0.70;;;10.30;75.90;;;13.34;47.87;97186.34;5031352;28;20049;-46
2023/01/13 01:55:26;;;;;;;1.23;0.80;;;10.30;75.60;;;13.32;47.93;97176.88;5031356;28;20064;-46
2023/01/13 01:58:34;;;;;;;2.80;1.07;;;10.30;75.60;;;13.36;47.61;97175.47;5027733;28;20049;-44
2023/01/13 02:01:02;;;;;;;2.67;0.87;;;10.30;75.40;;;13.35;47.84;97179.16;5031003;28;20052;-47
2023/01/13 02:03:30;;;;;;;1.23;0.60;;;10.30;75.80;;;13.38;47.81;97178.78;5031399;28;20041;-44
2023/01/13 02:05:57;;;;;;;1.33;0.50;;;10.30;75.80;;;13.30;47.75;97179.72;5029518;28;20050;-48
2023/01/13 02:08:26;;;;;;;0.63;0.60;;;10.30;75.80;;;13.30;48.18;97176.19;5029836;28;20058;-47
2023/01/13 02:10:53;;;;;;;1.43;0.70;;;10.30;76.00;;;13.32;48.13;97175.00;5029755;28;20045;-44
2023/01/13 02:13:22;;;;;;;2.90;0.57;;;10.30;75.90;;;13.24;48.42;97169.75;5030886;28;20041;-44
2023/01/13 02:16:15;;;;;;;0.70;0.70;;;10.30;76.20;;;13.22;48.19;97162.94;5013442;28;20045;-44
2023/01/13 02:19:16;;;;;;;1.85;0.75;;;10.30;76.10;;;13.22;48.38;97169.09;5029574;28;20041;-47
2023/01/13 02:22:36;;;;;;;1.00;0.60;;;10.20;77.10;;;13.26;48.32;97162.38;5029661;28;20041;-48
2023/01/13 02:25:57;;;;;;;1.30;1.10;;;10.30;76.50;;;13.19;48.69;97173.00;5029804;28;20064;-43
2023/01/13 02:32:21;;;;;;;1.90;0.90;;;10.20;76.90;;;13.22;48.66;97158.41;5029159;28;20045;-45
2023/01/13 02:35:05;;;;;;;0.60;0.57;;;10.30;77.10;;;13.16;48.76;97143.97;5029227;28;20050;-46
2023/01/13 02:37:39;;;;;;;0.73;0.60;;;10.20;77.30;;;13.14;49.01;97147.84;5029429;28;20485;-43
2023/01/13 02:40:28;;;;;;;;;;;10.20;77.70;;;13.16;48.98;97146.66;5029368;28;20496;-47
2023/01/13 02:46:29;;;;;;;0.77;0.55;;;10.20;78.10;;;13.14;49.08;97131.81;5035498;28;20045;-45
2023/01/13 02:49:04;;;;;;;0.60;0.57;;;10.10;78.10;;;13.10;49.13;97143.91;5028985;28;20041;-44
2023/01/13 02:51:34;;;;;;;1.53;0.80;;;10.10;78.30;;;13.03;49.25;97137.66;5029107;28;20045;-47
2023/01/13 02:54:20;;;;;;;0.73;0.60;;;10.20;78.60;;;12.97;49.52;97137.41;5012761;28;20049;-45
2023/01/13 02:56:52;;;;;;;1.37;0.80;;;10.10;78.60;;;12.99;49.56;97132.69;5029111;28;20049;-48
2023/01/13 02:59:24;;;;;;;0.57;0.50;;;10.10;78.90;;;13.08;49.58;97140.59;5028818;28;20488;-44
2023/01/13 03:01:56;;;;;;;2.30;0.60;;;10.10;79.00;;;13.07;49.58;97137.09;5028843;28;20045;-45
2023/01/13 03:04:50;;;;;;;1.27;0.80;;;10.10;79.20;;;13.14;49.20;97131.81;5030398;28;20050;-43
2023/01/13 03:07:59;;;;;;;2.42;0.65;;;10.20;78.90;;;13.11;49.38;97140.22;5029491;28;20045;-43
2023/01/13 03:10:48;;;;;;;0.63;0.60;;;10.10;79.00;;;13.10;49.66;97127.84;5027590;28;20412;-46
2023/01/13 03:13:51;;;;;;;1.30;0.73;;;10.10;79.00;;;13.14;49.19;97121.13;5026690;28;20046;-45
2023/01/13 03:16:59;;;;;;;1.90;0.83;;;10.10;79.00;;;13.02;49.58;97126.13;5027826;28;20512;-45
2023/01/13 03:20:07;;;;;;;1.77;0.60;;;10.10;78.90;;;13.10;49.64;97127.84;5031640;28;20053;-44
2023/01/13 03:23:00;;;;;;;1.50;1.40;;;10.10;79.00;;;13.09;49.45;97123.56;5028769;28;20041;-46
2023/01/13 03:25:35;;;;;;;1.57;0.67;;;10.10;79.10;;;13.14;49.27;97123.78;5013370;28;20045;-48
2023/01/13 03:28:13;;;;;;;0.87;0.80;;;10.10;79.00;;;13.08;49.42;97130.72;5032541;28;20060;-46
2023/01/13 03:30:53;;;;;;;1.83;1.33;;;10.10;79.00;;;13.03;49.87;97110.91;5032839;28;20049;-44
2023/01/13 03:33:31;;;;;;;1.13;0.73;;;10.10;80.00;;;12.95;49.81;97106.53;5027665;28;20056;-47
2023/01/13 03:36:05;;;;;;;1.57;0.93;;;10.10;79.60;;;12.97;49.81;97097.31;5032261;28;20049;-47
2023/01/13 03:38:38;;;;;;;1.47;0.70;;;10.10;79.70;;;13.03;50.01;97108.25;5033802;28;20044;-47
2023/01/13 03:41:29;;;;;;;1.10;0.80;;;10.10;79.70;;;12.94;50.16;97103.03;5033810;28;20045;-44
2023/01/13 03:44:26;;;;;;;1.47;0.93;;;10.00;80.00;;;12.96;50.07;97100.19;5032966;28;20400;-43
2023/01/13 03:47:12;;;;;;;1.17;0.83;;;10.00;80.00;;;13.02;49.93;97099.41;5032785;28;20041;-44
2023/01/13 03:49:53;;;;;;;0.90;0.80;;;10.00;80.00;;;13.04;49.80;97097.38;5032005;28;20046;-45
2023/01/13 03:52:46;;;;;;;0.83;0.47;;;10.10;80.00;;;12.99;50.09;97092.63;5026514;28;20496;-47
2023/01/13 03:55:25;;;;;;;1.60;0.80;;;10.00;79.80;;;12.93;50.06;97096.06;5025269;28;20041;-43
2023/01/13 03:58:13;;;;;;;4.07;1.10;;;10.00;80.90;;;12.94;50.31;97086.19;5033258;28;20045;-46
2023/01/13 04:00:53;;;;;;;0.83;0.70;;;10.00;80.10;;;12.91;50.45;97078.53;5032450;28;20516;-47
2023/01/13 04:04:24;;;;;;;1.70;1.13;;;10.00;80.30;;;12.92;50.06;97096.22;5010240;28;20056;-45
2023/01/13 04:07:26;;;;;;;1.83;0.93;;;10.00;80.30;;;12.90;50.43;97077.72;5010959;28;20042;-44
2023/01/13 04:09:59;;;;;;;2.60;0.90;;;10.00;80.30;;;12.92;50.13;97073.00;5010964;28;20437;-45
2023/01/13 04:15:26;;;;;;;2.83;1.50;;;10.00;80.30;;;12.96;50.11;97078.81;5032619;28;20045;-46
2023/01/13 04:18:11;;;;;;;1.90;1.13;;;10.00;80.20;;;12.98;50.14;97074.09;5015184;28;20037;-47
2023/01/13 04:20:40;;;;;;;1.47;0.90;;;10.00;79.90;;;12.99;50.19;97081.09;5031185;28;20067;-45
2023/01/13 04:23:09;;;;;;;2.40;1.00;;;10.00;79.80;;;13.03;50.11;97071.69;5031860;28;20045;-45
2023/01/13 04:25:37;;;;;;;2.00;0.70;;;10.10;79.70;;;12.97;50.22;97061.78;5032895;28;20038;-46
2023/01/13 04:28:04;;;;;;;1.67;0.80;;;10.00;79.50;;;12.89;50.19;97064.53;5032822;28;20041;-45
2023/01/13 04:30:32;;;;;;;0.93;0.80;;;10.00;79.30;;;12.95;50.18;97067.31;5032829;28;20052;-45
2023/01/13 04:33:00;;;;;;;1.57;1.20;;;10.00;79.50;;;12.95;50.02;97059.28;5033114;28;20053;-43
2023/01/13 04:35:27;;;;;;;3.87;1.47;;;10.00;79.30;;;13.02;49.72;97050.50;5032460;28;20037;-50
2023/01/13 04:37:55;;;;;;;2.57;0.80;;;10.00;79.20;;;13.08;49.66;97049.72;5032279;28;20037;-44
2023/01/13 04:40:23;;;;;;;2.27;0.90;;;10.10;79.20;;;13.10;49.59;97053.03;5032410;28;20048;-46
2023/01/13 04:42:50;;;;;;;1.00;0.87;;;10.10;78.70;;;13.13;49.66;97042.78;5032545;28;20045;-46
2023/01/13 04:45:18;;;;;;;1.10;0.70;;;10.10;78.50;;;13.07;49.69;97053.44;5031521;28;20041;-46
2023/01/13 04:47:47;;;;;;;0.97;0.60;;;10.10;78.30;;;13.11;49.27;97046.69;5032220;28;20057;-43
2023/01/13 04:50:18;;;;;;;1.17;0.80;;;10.10;78.40;;;13.09;49.43;97040.72;5031234;28;20049;-45
2023/01/13 04:52:47;;;;;;;0.80;0.80;;;10.10;78.20;;;13.13;49.47;97034.78;5032091;28;20045;-45
2023/01/13 04:55:18;;;;;;;3.23;0.80;;;10.10;78.20;;;13.17;49.07;97049.41;5031115;28;20053;-45
2023/01/13 04:57:45;;;;;;;1.37;0.60;;;10.20;78.20;;;13.00;49.69;97040.81;5028496;28;20034;-45
2023/01/13 05:00:17;;;;;;;0.53;0.50;;;10.10;78.20;;;13.12;49.52;97037.63;5030583;28;20045;-43
2023/01/13 05:02:44;;;;;;;2.03;0.80;;;10.20;78.10;;;13.12;49.28;97043.78;5032140;28;20046;-44
2023/01/13 05:05:12;;;;;;;1.57;0.80;;;10.10;77.80;;;13.10;49.35;97040.50;5031981;28;20093;-47
2023/01/13 05:07:39;;;;;;;1.63;0.90;;;10.10;78.00;;;13.15;49.49;97053.31;5030580;28;20045;-43
2023/01/13 05:10:08;;;;;;;2.17;0.80;;;10.10;78.10;;;13.11;49.27;97050.19;5031846;28;20033;-45
2023/01/13 05:18:08;;;;;;;1.47;0.60;;;10.20;77.70;;;13.26;48.90;97055.47;5030475;28;20041;-45
2023/01/13 05:20:35;;;;;;;1.17;0.80;;;10.30;77.60;;;13.29;48.82;97056.91;5031875;28;20029;-46
2023/01/13 05:25:49;;;;;;;1.80;0.57;;;10.30;77.30;;;13.32;48.80;97052.03;5032101;28;20098;-45
2023/01/13 05:28:17;;;;;;;2.00;0.70;;;10.30;77.20;;;13.32;48.95;97057.38;5031623;28;20051;-48
2023/01/13 05:30:47;;;;;;;1.43;0.87;;;10.30;77.30;;;13.33;48.87;97059.03;5031148;28;20073;-47
2023/01/13 05:33:19;;;;;;;0.93;0.50;;;10.30;77.00;;;13.33;48.65;97051.00;5031953;28;20045;-48
2023/01/13 05:35:48;;;;;;;2.27;0.70;;;10.30;77.00;;;13.22;49.19;97034.63;5030122;28;20049;-44
2023/01/13 05:38:16;;;;;;;0.70;0.60;;;10.30;77.10;;;13.26;48.98;97052.78;5031229;28;20037;-46
2023/01/13 05:43:31;;;;;;;0.60;0.50;;;10.30;77.30;;;13.32;48.75;97051.22;5031500;28;20038;-45
2023/01/13 05:46:06;;;;;;;1.30;0.60;;;10.30;77.10;;;13.33;48.65;97048.34;5031369;28;20044;-46
2023/01/13 05:48:41;;;;;;;1.17;0.50;;;10.30;77.10;;;13.36;48.72;97050.63;5029927;28;20067;-47
2023/01/13 05:51:11;;;;;;;0.97;0.50;;;10.30;76.60;;;13.37;48.68;97062.97;5030162;28;20042;-45
2023/01/13 05:53:42;;;;;;;1.17;0.90;;;10.40;77.10;;;13.37;48.67;97059.47;5030569;28;20041;-45
2023/01/13 05:56:10;;;;;;;0.77;0.47;;;10.40;76.80;;;13.36;48.85;97060.50;5031517;28;20053;-44
2023/01/13 05:58:38;;;;;;;1.90;0.60;;;10.40;76.80;;;13.37;48.75;97054.94;5029773;28;20064;-46
2023/01/13 06:01:08;;;;;;;0.63;0.63;;;10.30;76.90;;;13.37;48.50;97051.44;5029041;28;20037;-44
2023/01/13 06:03:36;;;;;;;1.07;0.70;;;10.30;77.10;;;13.41;48.55;97050.03;5029824;28;20041;-46
2023/01/13 06:06:07;;;;;;;0.67;0.53;;;10.40;77.00;;;13.41;48.43;97057.25;5030008;28;20050;-44
2023/01/13 06:08:35;;;;;;;0.63;0.57;;;10.40;76.90;;;13.43;48.69;97057.88;5031007;28;20041;-47
2023/01/13 06:11:06;;;;;;;1.27;0.50;;;10.40;76.80;;;13.44;48.78;97054.19;5030823;28;20045;-47
2023/01/13 06:13:34;;;;;;;0.63;0.43;;;10.40;76.80;;;13.43;48.57;97058.69;5031119;28;20518;-46
2023/01/13 06:16:01;;;;;;;0.80;0.50;;;10.40;76.80;;;13.42;48.76;97050.88;5030987;28;20421;-46
2023/01/13 06:18:29;;;;;;;0.83;0.53;;;10.40;76.90;;;13.42;48.56;97056.25;5030739;28;20050;-45
2023/01/13 06:20:57;;;;;;;0.50;0.47;;;10.40;77.00;;;13.46;48.70;97058.31;5029452;28;20052;-45
2023/01/13 06:23:25;;;;;;;0.47;0.47;;;10.40;77.20;;;13.48;48.61;97064.28;5031102;28;20044;-45
2023/01/13 06:26:03;;;;;;;0.60;0.40;;;10.40;76.70;;;13.40;48.60;97064.44;5030089;28;20034;-48
2023/01/13 06:28:32;;;;;;;0.57;0.53;;;10.40;76.80;;;13.43;48.69;97058.69;5029715;28;20048;-44
2023/01/13 06:31:05;;;;;;;1.70;0.60;;;10.40;77.00;;;13.44;48.76;97057.69;5030825;28;20381;-44
2023/01/13 06:33:37;;;;;;;0.60;0.55;;;10.40;77.10;;;13.49;48.44;97055.28;5029501;28;20045;-48
2023/01/13 06:36:15;;;;;;;0.90;0.50;;;10.40;77.00;;;13.48;48.66;97052.78;5029501;28;20045;-45
2023/01/13 06:38:46;;;;;;;2.87;0.60;;;10.40;77.00;;;13.48;48.52;97042.91;5029477;28;20477;-42
2023/01/13 06:41:14;;;;;;;1.43;0.53;;;10.40;77.10;;;13.51;48.56;97049.69;5022050;28;20045;-45
2023/01/13 06:43:42;;;;;;;1.30;0.70;;;10.40;76.90;;;13.51;48.49;97047.03;5030252;28;20156;-47
2023/01/13 06:46:10;;;;;;;1.30;0.80;;;10.40;77.10;;;13.50;48.50;97032.84;5030797;28;20045;-44
2023/01/13 06:48:37;;;;;;;2.57;0.60;;;10.40;77.30;;;13.51;48.59;97042.53;5030296;28;20089;-44
2023/01/13 06:51:05;;;;;;;1.10;0.70;;;10.40;77.20;;;13.50;48.63;97050.75;5030233;28;20323;-46
2023/01/13 06:53:32;;;;;;;0.40;0.37;;;10.40;77.30;;;13.53;48.59;97042.31;5030217;28;20046;-43
2023/01/13 06:56:00;;;;;;;1.13;0.57;;;10.40;77.10;;;13.51;48.44;97041.69;5030252;28;20045;-44
2023/01/13 06:58:27;;;;;;;0.70;0.40;;;10.40;77.10;;;13.50;48.51;97046.22;5030335;28;20033;-45
2023/01/13 07:00:59;;;;;;;0.83;0.70;;;10.40;77.20;;;13.43;48.89;97036.47;5029848;28;20041;-46
2023/01/13 07:03:27;;;;;;;0.53;0.53;;;10.40;77.40;;;13.49;48.83;97044.56;5013221;28;20041;-45
2023/01/13 07:05:55;;;;;;;2.30;0.70;;;10.40;77.50;;;13.46;48.78;97034.25;5029086;28;20520;-43
2023/01/13 07:08:23;;;;;;;0.63;0.40;;;10.40;77.50;;;13.44;48.94;97033.63;5030319;28;20045;-44
2023/01/13 07:10:51;;;;;;;1.73;1.13;;;10.40;77.80;;;13.45;48.88;97037.13;5030116;28;20045;-46
2023/01/13 07:16:08;;;;;;;0.83;0.60;;;10.40;78.10;;;13.43;48.98;97039.16;5030297;28;20104;-47
2023/01/13 07:18:36;;;;;;;0.97;0.60;;;10.30;78.40;;;13.43;48.88;97037.31;5028752;28;20048;-45
2023/01/13 07:21:07;;;;;;;1.27;0.50;;;10.30;78.60;;;13.44;49.19;97041.66;5030256;28;20049;-44
2023/01/13 07:23:38;;;;;;;1.77;0.50;;;10.40;78.50;;;13.47;48.95;97037.75;5030110;28;20129;-45
2023/01/13 07:26:08;;;;;;;1.30;1.10;;;10.40;78.60;;;13.48;49.13;97045.56;5029155;28;20038;-45
2023/01/13 07:28:36;;;;;;;1.20;0.70;;;10.40;78.40;;;13.45;48.94;97051.31;5029918;28;20500;-46
2023/01/13 07:31:11;;;;;;;1.87;0.80;;;10.40;78.50;;;13.46;49.09;97044.94;5030035;28;20492;-47
2023/01/13 07:33:39;;;;;;;1.00;0.60;;;10.40;78.60;;;13.48;49.07;97052.78;5029090;28;20069;-44
2023/01/13 07:36:07;;;;;;;0.60;0.60;;;10.40;78.30;;;13.44;49.04;97032.81;5030023;28;20420;-44
2023/01/13 07:38:35;;;;;;;0.53;0.50;;;10.40;78.30;;;13.44;49.08;97038.16;5029941;28;20042;-44
2023/01/13 07:43:49;;;;;;;2.03;0.60;;;10.40;78.40;;;13.44;48.93;97041.66;5029173;28;20389;-45
2023/01/13 07:46:17;;;;;;;1.60;0.63;;;10.40;78.10;;;13.45;49.10;97045.13;5030114;28;20056;-48
2023/01/13 07:48:47;;;;;;;1.43;0.60;;;10.40;78.20;;;13.39;49.15;97039.53;5029844;28;20064;-49
2023/01/13 07:51:15;;;;;;;0.57;0.57;;;10.40;78.30;;;13.38;49.18;97053.13;5028985;28;20420;-45
2023/01/13 07:53:42;;;;;;;0.50;0.50;;;10.40;78.10;;;13.38;49.15;97053.94;5030209;28;20046;-43
2023/01/13 07:56:10;;;;;;;1.23;0.80;;;10.40;78.20;;;13.38;49.41;97050.44;5030615;28;20139;-43
2023/01/13 07:58:37;;;;;;;0.50;0.50;;;10.40;78.40;;;13.44;49.34;97048.84;5031997;28;20044;-44
2023/01/13 08:01:12;;;;;;;0.50;0.50;;;10.40;78.60;;;13.46;49.23;97060.16;5030053;28;20041;-45
2023/01/13 08:03:40;;;;;;;0.90;0.50;;;10.40;78.80;;;13.48;49.72;97064.28;5031933;28;20041;-47
2023/01/13 08:06:10;;;;;;;0.67;0.53;;;10.40;79.00;;;13.54;49.70;97070.72;5033250;28;20037;-45
2023/01/13 08:08:38;;;;;;;0.63;0.50;;;10.50;79.60;;;13.55;49.61;97083.06;5032703;28;20330;-42
2023/01/13 08:11:07;;;;;;;1.23;1.10;;;10.40;80.60;;;13.52;50.04;97094.16;5031937;28;20608;-44
2023/01/13 08:13:35;;;;;;;1.27;0.67;;;10.50;80.30;;;13.54;49.97;97100.13;5033699;28;20049;-43
2023/01/13 08:16:10;;;;;;;0.50;0.50;;;10.50;80.90;;;13.50;50.71;97109.56;5033426;28;20268;-44
2023/01/13 08:18:38;;;;;;;0.50;0.50;;;10.40;82.30;;;13.51;50.53;97116.56;5032619;28;20308;-43
2023/01/13 08:21:13;;;;;;;0.90;0.60;;;10.50;82.80;;;13.44;51.05;97121.03;5033001;28;20392;-45
2023/01/13 08:23:42;;;;;;;0.97;0.70;;;10.40;84.20;;;13.40;51.26;97131.28;5032105;28;20041;-44
2023/01/13 08:26:16;;;;;;;0.67;0.67;;;10.30;85.30;;;13.35;51.67;97123.81;5025069;28;20041;-44
2023/01/13 08:28:44;;;;;;;0.90;0.60;;;10.30;86.30;;;13.34;51.85;97129.38;5032690;28;20068;-43
2023/01/13 08:31:15;;;;;;;0.60;0.60;;;10.20;86.50;;;13.33;52.09;97131.22;5025213;28;20416;-48
2023/01/13 08:33:43;;;;;;;0.37;0.37;;;10.20;87.60;;;13.29;51.99;97135.25;5033504;28;20045;-43
2023/01/13 08:36:11;;;;;;;1.80;0.50;;;10.20;88.00;;;13.29;52.38;97137.09;5023650;28;20045;-50
2023/01/13 08:38:40;;;;;;;1.17;1.07;;;10.20;88.40;;;13.23;52.74;97144.03;5032386;28;20048;-46
2023/01/13 08:41:14;;;;;;;0.73;0.60;;;10.20;89.30;;;13.16;52.82;97152.00;5032568;28;20033;-43
2023/01/13 08:43:41;;;;;;;0.53;0.53;;;10.10;89.90;;;13.14;52.85;97170.06;5031654;28;20413;-45
2023/01/13 08:46:09;;;;;;;1.03;0.70;;;10.10;91.10;;;12.80;54.78;97218.78;5032371;28;20469;-43
2023/01/13 08:48:37;;;;;;;0.77;0.53;;;9.90;94.50;;;12.15;56.70;97222.97;5030777;28;20041;-42
2023/01/13 08:51:07;;;;;;;2.33;0.80;;;9.50;99.30;;;11.67;56.88;97235.69;5032079;28;20531;-41
2023/01/13 08:53:35;;;;;;;1.37;0.60;;;9.00;99.90;;;11.10;58.94;97219.03;5031473;28;20045;-44
2023/01/13 08:56:10;;;;;;;0.90;0.60;;;8.70;99.90;;;10.66;60.48;97222.22;5032337;28;20060;-44
2023/01/13 08:58:39;;;;;;;0.83;0.47;;;8.40;99.90;;;10.86;58.96;97211.16;5030715;28;20041;-41
2023/01/13 09:01:09;;;;;;;1.70;0.77;;;8.40;99.90;;;10.72;59.64;97215.38;5032174;28;20037;-41
2023/01/13 09:03:38;;;;;;;0.27;0.27;;;8.30;99.90;;;10.67;59.20;97207.13;5032406;28;20041;-42
2023/01/13 09:06:05;;;;;;;0.60;0.50;;;8.30;99.90;;;10.49;59.92;97210.84;5031612;28;20042;-43
2023/01/13 09:08:33;;;;;;;0.77;0.60;;;8.20;99.90;;;10.73;58.79;97217.88;5031914;28;20420;-45
2023/01/13 09:13:10;;;;;;;1.30;0.90;;;8.30;99.90;;;10.57;58.79;97231.28;5031869;28;20056;-43
2023/01/13 09:13:48;;;;;;;1.10;0.87;;;8.20;99.90;;;10.57;58.94;97213.47;5031997;28;20393;-42
2023/01/13 09:16:15;;;;;;;0.77;0.67;;;8.20;99.90;;;10.82;58.76;97229.34;5032360;28;20056;-44
2023/01/13 09:18:43;;;;;;;0.73;0.60;;;8.30;99.90;;;10.94;58.00;97232.47;5032073;28;20041;-44
2023/01/13 09:21:18;;;;;;;0.77;0.63;;;8.30;99.90;;;10.95;57.63;97232.28;5024195;28;20029;-44
2023/01/13 09:23:46;;;;;;;1.47;0.40;;;8.40;99.90;;;10.92;57.81;97240.63;5030795;28;20045;-44
2023/01/13 09:26:19;;;;;;;1.60;0.80;;;8.30;99.90;;;11.04;57.38;97238.41;5032200;28;20048;-46
2023/01/13 09:28:47;;;;;;;1.27;0.90;;;8.30;99.90;;;11.10;57.36;97232.38;5031674;28;20052;-46
2023/01/13 09:31:15;;;;;;;1.70;1.00;;;8.40;99.90;;;11.21;56.94;97239.16;5031858;28;20046;-47
2023/01/13 09:36:28;;;;;;;0.63;0.63;;;8.40;99.90;;;11.18;57.10;97232.31;5026378;28;20277;-44
2023/01/13 09:38:56;;;;;;;1.00;0.70;;;8.40;99.90;;;11.31;56.60;97238.94;5031376;28;20151;-43
2023/01/13 09:44:28;;;;;;;3.77;1.00;;;8.50;99.90;;;11.45;56.87;97243.50;5022867;28;20041;-45
2023/01/13 09:47:02;;;;;;;1.13;0.50;;;8.60;99.90;;;11.43;56.35;97235.66;5030526;28;20041;-43
2023/01/13 09:49:37;;;;;;;1.17;0.87;;;8.70;99.90;;;11.57;56.53;97244.75;5030193;28;20424;-47
2023/01/13 09:52:24;;;;;;;2.10;0.83;;;8.80;99.90;;;11.15;56.66;97246.00;5030224;28;20061;-43
2023/01/13 09:55:08;;;;;;;1.00;0.60;;;8.70;99.90;;;11.06;56.91;97273.69;5030258;28;20045;-49
2023/01/13 09:57:38;;;;;;;4.63;1.17;;;8.60;99.90;;;11.15;56.90;97280.63;5029553;28;20049;-43
2023/01/13 10:00:23;;;;;;;1.33;0.83;;;8.70;99.90;;;11.15;56.97;97269.97;5029979;28;20041;-46
2023/01/13 10:03:28;;;;;;;3.90;1.00;;;8.60;99.90;;;11.30;56.38;97269.22;5030240;28;20037;-46
2023/01/13 10:06:21;;;;;;;;;;;8.60;99.90;;;11.36;56.17;97264.06;5029616;28;20048;-47
2023/01/13 10:08:49;;;;;;;2.87;0.73;;;8.60;99.90;;;11.35;55.70;97270.38;5031043;28;19921;-44
2023/01/13 10:14:17;;;;;;;1.57;1.00;;;8.60;99.90;;;11.15;56.13;97271.81;5030067;28;20504;-44
2023/01/13 10:17:14;;;;;;;7.13;1.33;;;8.60;99.90;;;11.08;56.94;97271.66;5030951;28;20328;-44
2023/01/13 10:20:32;;;;;;;1.37;0.90;;;8.60;99.90;;;11.08;56.51;97270.84;5028264;28;20516;-43
2023/01/13 10:24:01;;;;;;;3.50;1.17;;;8.60;99.90;;;11.07;56.73;97274.50;5028713;28;20056;-45
2023/01/13 10:27:06;;;;;;;4.80;1.30;;;8.60;99.90;;;11.07;57.42;97274.50;5033529;28;20124;-48
2023/01/13 10:29:35;;;;;;;2.55;0.80;;;8.60;99.90;;;11.32;56.80;97276.06;5025497;28;20037;-45
2023/01/13 10:32:03;;;;;;;2.67;1.00;;;8.70;99.90;;;11.35;56.90;97277.53;5030424;28;20053;-43
2023/01/13 10:34:59;;;;;;;3.27;1.40;;;8.80;99.90;;;11.56;56.84;97277.75;5030767;28;20048;-46
2023/01/13 10:37:27;;;;;;;2.23;0.90;;;8.90;99.90;;;11.63;56.02;97288.53;5024913;28;20049;-45
2023/01/13 10:40:01;;;;;;;2.40;1.00;;;8.90;99.90;;;11.56;56.19;97284.91;5028980;28;20511;-43
2023/01/13 10:42:28;;;;;;;2.87;0.80;;;8.80;99.90;;;11.47;56.30;97284.13;5030894;28;20037;-46
2023/01/13 10:45:00;;;;;;;1.07;0.60;;;8.70;99.90;;;11.61;56.08;97288.72;5030431;28;20497;-44
2023/01/13 10:47:34;;;;;;;1.60;1.00;;;8.80;99.90;;;11.62;55.85;97276.22;5030601;28;20037;-45
2023/01/13 10:50:10;;;;;;;3.07;1.07;;;8.80;99.90;;;11.48;56.14;97291.13;5029277;28;20042;-43
2023/01/13 10:52:54;;;;;;;1.47;0.90;;;8.70;99.90;;;11.54;55.75;97271.75;5030447;28;20064;-43
2023/01/13 10:55:35;;;;;;;4.95;1.60;;;8.60;99.90;;;11.39;55.71;97274.34;5023192;28;20056;-43
2023/01/13 10:58:23;;;;;;;1.00;0.80;;;8.60;99.90;;;11.43;56.09;97280.16;5029111;28;20053;-42
2023/01/13 11:01:04;;;;;;;2.93;1.13;;;8.50;99.90;;;11.34;55.81;97283.88;5025114;28;20419;-44
2023/01/13 11:03:41;;;;;;;1.60;0.90;;;8.50;99.90;;;11.55;55.58;97281.41;5029428;28;20045;-44
2023/01/13 11:06:32;;;;;;;1.90;1.27;;;8.60;99.90;;;11.48;55.41;97276.97;5029243;28;20038;-47
2023/01/13 11:09:01;;;;;;;2.30;0.93;;;8.60;99.90;;;11.48;55.22;97276.97;5030163;28;20037;-44
2023/01/13 11:11:45;;;;;;;2.57;1.50;;;8.60;99.90;;;11.43;55.59;97274.81;5030379;28;20041;-47
2023/01/13 11:14:41;;;;;;;3.55;1.10;;;8.50;99.90;;;11.46;55.52;97284.28;5023116;28;20044;-49
2023/01/13 11:17:35;;;;;;;2.63;1.40;;;8.50;99.90;;;11.38;55.01;97285.16;5026399;28;20551;-44
2023/01/13 11:20:11;;;;;;;5.07;1.30;;;8.40;99.90;;;11.20;55.64;97288.09;5030280;28;20068;-48
2023/01/13 11:22:43;;;;;;;2.87;1.40;;;8.40;99.90;;;11.33;55.29;97299.03;5030205;28;20042;-46
2023/01/13 11:25:30;;;;;;;3.47;1.47;;;8.40;99.90;;;11.33;55.46;97285.72;5021007;28;20038;-43
2023/01/13 11:28:29;;;;;;;5.43;1.47;;;8.50;99.90;;;11.33;55.12;97293.69;5028757;28;20048;-47